sensor_id;sensor_type;location;lat;lon;timestamp;temperature;humidity
25214;DHT22;13160;51.834;4.706;2024-02-16T00:00:07;13.00;99.90
25214;DHT22;13160;51.834;4.706;2024-02-16T00:02:42;13.00;99.90
25214;DHT22;13160;51.834;4.706;2024-02-16T00:05:13;13.00;99.90
25214;DHT22;13160;51.834;4.706;2024-02-16T00:07:43;13.00;99.90
25214;DHT22;13160;51.834;4.706;2024-02-16T00:10:24;13.00;99.90
25214;DHT22;13160;51.834;4.706;2024-02-16T00:12:57;12.90;99.90
25214;DHT22;13160;51.834;4.706;2024-02-16T00:15:27;12.90;99.90
25214;DHT22;13160;51.834;4.706;2024-02-16T00:18:00;12.90;99.90
25214;DHT22;13160;51.834;4.706;2024-02-16T00:20:31;12.90;99.90
25214;DHT22;13160;51.834;4.706;2024-02-16T00:23:00;12.90;99.90
25214;DHT22;13160;51.834;4.706;2024-02-16T00:25:32;12.90;99.90
25214;DHT22;13160;51.834;4.706;2024-02-16T00:28:09;12.90;99.90
25214;DHT22;13160;51.834;4.706;2024-02-16T00:30:41;12.90;99.90
25214;DHT22;13160;51.834;4.706;2024-02-16T00:33:16;12.90;99.90
25214;DHT22;13160;51.834;4.706;2024-02-16T00:35:50;12.90;99.90
25214;DHT22;13160;51.834;4.706;2024-02-16T00:38:26;12.90;99.90
25214;DHT22;13160;51.834;4.706;2024-02-16T00:40:55;12.80;99.90
25214;DHT22;13160;51.834;4.706;2024-02-16T00:43:31;12.80;99.90
25214;DHT22;13160;51.834;4.706;2024-02-16T00:46:03;12.80;99.90
25214;DHT22;13160;51.834;4.706;2024-02-16T00:48:33;12.80;99.90
25214;DHT22;13160;51.834;4.706;2024-02-16T00:51:03;12.80;99.90
25214;DHT22;13160;51.834;4.706;2024-02-16T00:53:34;12.80;99.90
25214;DHT22;13160;51.834;4.706;2024-02-16T00:56:08;12.80;99.90
25214;DHT22;13160;51.834;4.706;2024-02-16T00:58:43;12.70;99.90
25214;DHT22;13160;51.834;4.706;2024-02-16T01:01:15;12.70;99.90
25214;DHT22;13160;51.834;4.706;2024-02-16T01:03:45;12.80;99.90
25214;DHT22;13160;51.834;4.706;2024-02-16T01:06:15;12.70;99.90
25214;DHT22;13160;51.834;4.706;2024-02-16T01:08:49;12.70;99.90
25214;DHT22;13160;51.834;4.706;2024-02-16T01:11:19;12.70;99.90
25214;DHT22;13160;51.834;4.706;2024-02-16T01:13:54;12.70;99.90
25214;DHT22;13160;51.834;4.706;2024-02-16T01:16:28;12.70;99.90
25214;DHT22;13160;51.834;4.706;2024-02-16T01:18:57;12.70;99.90
25214;DHT22;13160;51.834;4.706;2024-02-16T01:21:29;12.70;99.90
25214;DHT22;13160;51.834;4.706;2024-02-16T01:23:58;12.70;99.90
25214;DHT22;13160;51.834;4.706;2024-02-16T01:26:29;12.70;99.90
25214;DHT22;13160;51.834;4.706;2024-02-16T01:29:14;12.70;99.90
25214;DHT22;13160;51.834;4.706;2024-02-16T01:31:46;12.70;99.90
25214;DHT22;13160;51.834;4.706;2024-02-16T01:34:17;12.70;99.90
25214;DHT22;13160;51.834;4.706;2024-02-16T01:36:53;12.70;99.90
25214;DHT22;13160;51.834;4.706;2024-02-16T01:39:26;12.70;99.90
25214;DHT22;13160;51.834;4.706;2024-02-16T01:41:56;12.70;99.90
25214;DHT22;13160;51.834;4.706;2024-02-16T01:44:27;12.70;99.90
25214;DHT22;13160;51.834;4.706;2024-02-16T01:46:58;12.80;99.90
25214;DHT22;13160;51.834;4.706;2024-02-16T01:49:34;12.70;99.90
25214;DHT22;13160;51.834;4.706;2024-02-16T01:52:15;12.70;99.90
25214;DHT22;13160;51.834;4.706;2024-02-16T01:54:47;12.70;99.90
25214;DHT22;13160;51.834;4.706;2024-02-16T01:57:20;12.70;99.90
25214;DHT22;13160;51.834;4.706;2024-02-16T01:59:51;12.70;99.90
25214;DHT22;13160;51.834;4.706;2024-02-16T02:02:20;12.70;99.90
25214;DHT22;13160;51.834;4.706;2024-02-16T02:04:51;12.70;99.90
25214;DHT22;13160;51.834;4.706;2024-02-16T02:07:25;12.60;99.90
25214;DHT22;13160;51.834;4.706;2024-02-16T02:10:00;12.60;99.90
25214;DHT22;13160;51.834;4.706;2024-02-16T02:12:30;12.60;99.90
25214;DHT22;13160;51.834;4.706;2024-02-16T02:15:01;12.60;99.90
25214;DHT22;13160;51.834;4.706;2024-02-16T02:17:33;12.60;99.90
25214;DHT22;13160;51.834;4.706;2024-02-16T02:20:14;12.60;99.90
25214;DHT22;13160;51.834;4.706;2024-02-16T02:22:50;12.60;99.90
25214;DHT22;13160;51.834;4.706;2024-02-16T02:25:20;12.60;99.90
25214;DHT22;13160;51.834;4.706;2024-02-16T02:27:53;12.50;99.90
25214;DHT22;13160;51.834;4.706;2024-02-16T02:30:26;12.50;99.90
25214;DHT22;13160;51.834;4.706;2024-02-16T02:33:00;12.50;99.90
25214;DHT22;13160;51.834;4.706;2024-02-16T02:35:33;12.50;99.90
25214;DHT22;13160;51.834;4.706;2024-02-16T02:38:06;12.50;99.90
25214;DHT22;13160;51.834;4.706;2024-02-16T02:40:35;12.40;99.90
25214;DHT22;13160;51.834;4.706;2024-02-16T02:43:09;12.40;99.90
25214;DHT22;13160;51.834;4.706;2024-02-16T02:45:39;12.40;99.90
25214;DHT22;13160;51.834;4.706;2024-02-16T02:48:10;12.40;99.90
25214;DHT22;13160;51.834;4.706;2024-02-16T02:50:40;12.40;99.90
25214;DHT22;13160;51.834;4.706;2024-02-16T02:53:12;12.40;99.90
25214;DHT22;13160;51.834;4.706;2024-02-16T02:55:45;12.40;99.90
25214;DHT22;13160;51.834;4.706;2024-02-16T02:58:17;12.40;99.90
25214;DHT22;13160;51.834;4.706;2024-02-16T03:00:47;12.40;99.90
25214;DHT22;13160;51.834;4.706;2024-02-16T03:03:16;12.40;99.90
25214;DHT22;13160;51.834;4.706;2024-02-16T03:05:46;12.40;99.90
25214;DHT22;13160;51.834;4.706;2024-02-16T03:08:20;12.40;99.90
25214;DHT22;13160;51.834;4.706;2024-02-16T03:10:51;12.40;99.90
25214;DHT22;13160;51.834;4.706;2024-02-16T03:13:21;12.40;99.90
25214;DHT22;13160;51.834;4.706;2024-02-16T03:15:51;12.40;99.90
25214;DHT22;13160;51.834;4.706;2024-02-16T03:18:21;12.40;99.90
25214;DHT22;13160;51.834;4.706;2024-02-16T03:20:51;12.40;99.90
25214;DHT22;13160;51.834;4.706;2024-02-16T03:23:24;12.40;99.90
25214;DHT22;13160;51.834;4.706;2024-02-16T03:25:56;12.40;99.90
25214;DHT22;13160;51.834;4.706;2024-02-16T03:28:38;12.40;99.90
25214;DHT22;13160;51.834;4.706;2024-02-16T03:31:07;12.40;99.90
25214;DHT22;13160;51.834;4.706;2024-02-16T03:33:36;12.40;99.90
25214;DHT22;13160;51.834;4.706;2024-02-16T03:36:07;12.40;99.90
25214;DHT22;13160;51.834;4.706;2024-02-16T03:38:47;12.40;99.90
25214;DHT22;13160;51.834;4.706;2024-02-16T03:41:19;12.40;99.90
25214;DHT22;13160;51.834;4.706;2024-02-16T03:43:55;12.40;99.90
25214;DHT22;13160;51.834;4.706;2024-02-16T03:46:28;12.40;99.90
25214;DHT22;13160;51.834;4.706;2024-02-16T03:49:02;12.40;99.90
25214;DHT22;13160;51.834;4.706;2024-02-16T03:51:33;12.40;99.90
25214;DHT22;13160;51.834;4.706;2024-02-16T03:54:05;12.40;99.90
25214;DHT22;13160;51.834;4.706;2024-02-16T03:56:34;12.40;99.90
25214;DHT22;13160;51.834;4.706;2024-02-16T03:59:05;12.40;99.90
25214;DHT22;13160;51.834;4.706;2024-02-16T04:01:37;12.40;99.90
25214;DHT22;13160;51.834;4.706;2024-02-16T04:04:06;12.40;99.90
25214;DHT22;13160;51.834;4.706;2024-02-16T04:06:39;12.40;99.90
25214;DHT22;13160;51.834;4.706;2024-02-16T04:09:10;12.30;99.90
25214;DHT22;13160;51.834;4.706;2024-02-16T04:11:42;12.40;99.90
25214;DHT22;13160;51.834;4.706;2024-02-16T04:14:11;12.30;99.90
25214;DHT22;13160;51.834;4.706;2024-02-16T04:16:42;12.30;99.90
25214;DHT22;13160;51.834;4.706;2024-02-16T04:19:12;12.30;99.90
25214;DHT22;13160;51.834;4.706;2024-02-16T04:21:42;12.30;99.90
25214;DHT22;13160;51.834;4.706;2024-02-16T04:24:17;12.30;99.90
25214;DHT22;13160;51.834;4.706;2024-02-16T04:26:51;12.30;99.90
25214;DHT22;13160;51.834;4.706;2024-02-16T04:29:20;12.30;99.90
25214;DHT22;13160;51.834;4.706;2024-02-16T04:31:50;12.30;99.90
25214;DHT22;13160;51.834;4.706;2024-02-16T04:34:19;12.30;99.90
25214;DHT22;13160;51.834;4.706;2024-02-16T04:36:50;12.30;99.90
25214;DHT22;13160;51.834;4.706;2024-02-16T04:39:21;12.30;99.90
25214;DHT22;13160;51.834;4.706;2024-02-16T04:41:51;12.30;99.90
25214;DHT22;13160;51.834;4.706;2024-02-16T04:44:20;12.30;99.90
25214;DHT22;13160;51.834;4.706;2024-02-16T04:46:51;12.30;99.90
25214;DHT22;13160;51.834;4.706;2024-02-16T04:49:22;12.30;99.90
25214;DHT22;13160;51.834;4.706;2024-02-16T04:51:51;12.30;99.90
25214;DHT22;13160;51.834;4.706;2024-02-16T04:54:24;12.30;99.90
25214;DHT22;13160;51.834;4.706;2024-02-16T04:56:54;12.30;99.90
25214;DHT22;13160;51.834;4.706;2024-02-16T04:59:27;12.30;99.90
25214;DHT22;13160;51.834;4.706;2024-02-16T05:01:57;12.30;99.90
25214;DHT22;13160;51.834;4.706;2024-02-16T05:04:27;12.30;99.90
25214;DHT22;13160;51.834;4.706;2024-02-16T05:06:56;12.30;99.90
25214;DHT22;13160;51.834;4.706;2024-02-16T05:09:27;12.40;99.90
25214;DHT22;13160;51.834;4.706;2024-02-16T05:11:58;12.40;99.90
25214;DHT22;13160;51.834;4.706;2024-02-16T05:14:31;12.40;99.90
25214;DHT22;13160;51.834;4.706;2024-02-16T05:17:01;12.40;99.90
25214;DHT22;13160;51.834;4.706;2024-02-16T05:19:34;12.30;99.90
25214;DHT22;13160;51.834;4.706;2024-02-16T05:22:04;12.40;99.90
25214;DHT22;13160;51.834;4.706;2024-02-16T05:24:37;12.40;99.90
25214;DHT22;13160;51.834;4.706;2024-02-16T05:27:11;12.40;99.90
25214;DHT22;13160;51.834;4.706;2024-02-16T05:29:41;12.40;99.90
25214;DHT22;13160;51.834;4.706;2024-02-16T05:32:15;12.40;99.90
25214;DHT22;13160;51.834;4.706;2024-02-16T05:34:46;12.40;99.90
25214;DHT22;13160;51.834;4.706;2024-02-16T05:37:21;12.40;99.90
25214;DHT22;13160;51.834;4.706;2024-02-16T05:39:51;12.50;99.90
25214;DHT22;13160;51.834;4.706;2024-02-16T05:42:26;12.50;99.90
25214;DHT22;13160;51.834;4.706;2024-02-16T05:44:58;12.50;99.90
25214;DHT22;13160;51.834;4.706;2024-02-16T05:47:28;12.40;99.90
25214;DHT22;13160;51.834;4.706;2024-02-16T05:49:59;12.50;99.90
25214;DHT22;13160;51.834;4.706;2024-02-16T05:52:28;12.50;99.90
25214;DHT22;13160;51.834;4.706;2024-02-16T05:55:00;12.50;99.90
25214;DHT22;13160;51.834;4.706;2024-02-16T05:57:31;12.50;99.90
25214;DHT22;13160;51.834;4.706;2024-02-16T06:00:01;12.50;99.90
25214;DHT22;13160;51.834;4.706;2024-02-16T06:02:33;12.50;99.90
25214;DHT22;13160;51.834;4.706;2024-02-16T06:05:05;12.50;99.90
25214;DHT22;13160;51.834;4.706;2024-02-16T06:07:37;12.50;99.90
25214;DHT22;13160;51.834;4.706;2024-02-16T06:10:10;12.50;99.90
25214;DHT22;13160;51.834;4.706;2024-02-16T06:12:39;12.50;99.90
25214;DHT22;13160;51.834;4.706;2024-02-16T06:15:09;12.50;99.90
25214;DHT22;13160;51.834;4.706;2024-02-16T06:17:39;12.50;99.90
25214;DHT22;13160;51.834;4.706;2024-02-16T06:20:10;12.50;99.90
25214;DHT22;13160;51.834;4.706;2024-02-16T06:22:43;12.50;99.90
25214;DHT22;13160;51.834;4.706;2024-02-16T06:25:17;12.50;99.90
25214;DHT22;13160;51.834;4.706;2024-02-16T06:27:48;12.50;99.90
25214;DHT22;13160;51.834;4.706;2024-02-16T06:30:17;12.50;99.90
25214;DHT22;13160;51.834;4.706;2024-02-16T06:32:47;12.50;99.90
25214;DHT22;13160;51.834;4.706;2024-02-16T06:35:17;12.50;99.90
25214;DHT22;13160;51.834;4.706;2024-02-16T06:37:47;12.50;99.90
25214;DHT22;13160;51.834;4.706;2024-02-16T06:40:18;12.50;99.90
25214;DHT22;13160;51.834;4.706;2024-02-16T06:42:48;12.50;99.90
25214;DHT22;13160;51.834;4.706;2024-02-16T06:45:21;12.40;99.90
25214;DHT22;13160;51.834;4.706;2024-02-16T06:47:50;12.50;99.90
25214;DHT22;13160;51.834;4.706;2024-02-16T06:50:19;12.50;99.90
25214;DHT22;13160;51.834;4.706;2024-02-16T06:52:49;12.50;99.90
25214;DHT22;13160;51.834;4.706;2024-02-16T06:55:20;12.50;99.90
25214;DHT22;13160;51.834;4.706;2024-02-16T06:57:53;12.60;99.90
25214;DHT22;13160;51.834;4.706;2024-02-16T07:00:32;12.60;99.90
25214;DHT22;13160;51.834;4.706;2024-02-16T07:03:04;12.60;99.90
25214;DHT22;13160;51.834;4.706;2024-02-16T07:05:36;12.60;99.90
25214;DHT22;13160;51.834;4.706;2024-02-16T07:08:12;12.60;99.90
25214;DHT22;13160;51.834;4.706;2024-02-16T07:16:44;12.70;99.90
25214;DHT22;13160;51.834;4.706;2024-02-16T07:19:58;12.70;99.90
25214;DHT22;13160;51.834;4.706;2024-02-16T07:22:27;12.80;99.90
25214;DHT22;13160;51.834;4.706;2024-02-16T07:24:57;12.80;99.90
25214;DHT22;13160;51.834;4.706;2024-02-16T07:27:27;12.80;99.90
25214;DHT22;13160;51.834;4.706;2024-02-16T07:35:17;12.90;99.90
25214;DHT22;13160;51.834;4.706;2024-02-16T07:43:19;13.00;99.90
25214;DHT22;13160;51.834;4.706;2024-02-16T07:45:51;13.00;99.90
25214;DHT22;13160;51.834;4.706;2024-02-16T07:48:21;13.00;99.90
25214;DHT22;13160;51.834;4.706;2024-02-16T07:50:51;13.00;99.90
25214;DHT22;13160;51.834;4.706;2024-02-16T07:53:22;13.00;99.90
25214;DHT22;13160;51.834;4.706;2024-02-16T07:55:55;13.10;99.90
25214;DHT22;13160;51.834;4.706;2024-02-16T07:58:32;13.10;99.90
25214;DHT22;13160;51.834;4.706;2024-02-16T08:01:01;13.10;99.90
25214;DHT22;13160;51.834;4.706;2024-02-16T08:03:30;13.20;99.90
25214;DHT22;13160;51.834;4.706;2024-02-16T08:06:02;13.10;99.90
25214;DHT22;13160;51.834;4.706;2024-02-16T08:08:32;13.20;99.90
25214;DHT22;13160;51.834;4.706;2024-02-16T08:11:01;13.30;99.90
25214;DHT22;13160;51.834;4.706;2024-02-16T08:13:33;13.30;99.90
25214;DHT22;13160;51.834;4.706;2024-02-16T08:16:02;13.30;99.90
25214;DHT22;13160;51.834;4.706;2024-02-16T08:18:34;13.30;99.90
25214;DHT22;13160;51.834;4.706;2024-02-16T08:21:05;13.40;99.90
25214;DHT22;13160;51.834;4.706;2024-02-16T08:23:34;13.40;99.90
25214;DHT22;13160;51.834;4.706;2024-02-16T08:26:05;13.40;99.90
25214;DHT22;13160;51.834;4.706;2024-02-16T08:28:34;13.40;99.90
25214;DHT22;13160;51.834;4.706;2024-02-16T08:31:06;13.40;99.90
25214;DHT22;13160;51.834;4.706;2024-02-16T08:33:35;13.40;99.90
25214;DHT22;13160;51.834;4.706;2024-02-16T08:36:08;13.50;99.90
25214;DHT22;13160;51.834;4.706;2024-02-16T08:38:37;13.50;99.90
25214;DHT22;13160;51.834;4.706;2024-02-16T08:41:10;13.40;99.90
25214;DHT22;13160;51.834;4.706;2024-02-16T08:43:39;13.50;99.90
25214;DHT22;13160;51.834;4.706;2024-02-16T08:46:08;13.50;99.90
25214;DHT22;13160;51.834;4.706;2024-02-16T08:48:37;13.50;99.90
25214;DHT22;13160;51.834;4.706;2024-02-16T08:51:08;13.40;99.90
25214;DHT22;13160;51.834;4.706;2024-02-16T08:53:37;13.50;99.90
25214;DHT22;13160;51.834;4.706;2024-02-16T08:56:09;13.50;99.90
25214;DHT22;13160;51.834;4.706;2024-02-16T08:58:39;13.50;99.90
25214;DHT22;13160;51.834;4.706;2024-02-16T09:01:08;13.40;99.90
25214;DHT22;13160;51.834;4.706;2024-02-16T09:03:37;13.50;99.90
25214;DHT22;13160;51.834;4.706;2024-02-16T09:06:09;13.50;99.90
25214;DHT22;13160;51.834;4.706;2024-02-16T09:08:38;13.50;99.90
25214;DHT22;13160;51.834;4.706;2024-02-16T09:11:07;13.50;99.90
25214;DHT22;13160;51.834;4.706;2024-02-16T09:13:39;13.50;99.90
25214;DHT22;13160;51.834;4.706;2024-02-16T09:16:08;13.50;99.90
25214;DHT22;13160;51.834;4.706;2024-02-16T09:18:37;13.50;99.90
25214;DHT22;13160;51.834;4.706;2024-02-16T09:21:06;13.50;99.90
25214;DHT22;13160;51.834;4.706;2024-02-16T09:23:37;13.50;99.90
25214;DHT22;13160;51.834;4.706;2024-02-16T09:26:07;13.50;99.90
25214;DHT22;13160;51.834;4.706;2024-02-16T09:28:40;13.50;99.90
25214;DHT22;13160;51.834;4.706;2024-02-16T09:31:13;13.50;99.90
25214;DHT22;13160;51.834;4.706;2024-02-16T09:33:42;13.50;99.90
25214;DHT22;13160;51.834;4.706;2024-02-16T09:36:13;13.50;99.90
25214;DHT22;13160;51.834;4.706;2024-02-16T09:38:42;13.50;99.90
25214;DHT22;13160;51.834;4.706;2024-02-16T09:41:10;13.40;99.90
25214;DHT22;13160;51.834;4.706;2024-02-16T09:43:39;13.40;99.90
25214;DHT22;13160;51.834;4.706;2024-02-16T09:46:08;13.40;99.90
25214;DHT22;13160;51.834;4.706;2024-02-16T09:48:39;13.40;99.90
25214;DHT22;13160;51.834;4.706;2024-02-16T09:51:10;13.40;99.90
25214;DHT22;13160;51.834;4.706;2024-02-16T09:53:40;13.30;99.90
25214;DHT22;13160;51.834;4.706;2024-02-16T09:56:10;13.30;99.90
25214;DHT22;13160;51.834;4.706;2024-02-16T09:58:39;13.30;99.90
25214;DHT22;13160;51.834;4.706;2024-02-16T10:01:07;13.30;99.90
25214;DHT22;13160;51.834;4.706;2024-02-16T10:03:36;13.30;99.90
25214;DHT22;13160;51.834;4.706;2024-02-16T10:06:05;13.20;99.90
25214;DHT22;13160;51.834;4.706;2024-02-16T10:08:47;13.20;99.90
25214;DHT22;13160;51.834;4.706;2024-02-16T10:11:17;13.20;99.90
25214;DHT22;13160;51.834;4.706;2024-02-16T10:13:57;13.10;99.90
25214;DHT22;13160;51.834;4.706;2024-02-16T10:16:26;13.10;99.90
25214;DHT22;13160;51.834;4.706;2024-02-16T10:18:56;13.10;99.90
25214;DHT22;13160;51.834;4.706;2024-02-16T10:21:26;13.10;99.90
25214;DHT22;13160;51.834;4.706;2024-02-16T10:24:00;13.00;99.90
25214;DHT22;13160;51.834;4.706;2024-02-16T10:26:31;13.00;99.90
25214;DHT22;13160;51.834;4.706;2024-02-16T10:29:05;13.00;99.90
25214;DHT22;13160;51.834;4.706;2024-02-16T10:31:36;13.00;99.90
25214;DHT22;13160;51.834;4.706;2024-02-16T10:34:06;13.00;99.90
25214;DHT22;13160;51.834;4.706;2024-02-16T10:36:39;13.00;99.90
25214;DHT22;13160;51.834;4.706;2024-02-16T10:39:10;13.00;99.90
25214;DHT22;13160;51.834;4.706;2024-02-16T10:41:41;12.90;99.90
25214;DHT22;13160;51.834;4.706;2024-02-16T10:44:10;12.90;99.90
25214;DHT22;13160;51.834;4.706;2024-02-16T10:46:40;12.90;99.90
25214;DHT22;13160;51.834;4.706;2024-02-16T10:49:08;12.90;99.90
25214;DHT22;13160;51.834;4.706;2024-02-16T10:51:40;12.90;99.90
25214;DHT22;13160;51.834;4.706;2024-02-16T10:54:13;12.90;99.90
25214;DHT22;13160;51.834;4.706;2024-02-16T10:56:43;12.90;99.90
25214;DHT22;13160;51.834;4.706;2024-02-16T10:59:12;12.80;99.90
25214;DHT22;13160;51.834;4.706;2024-02-16T11:01:41;12.90;99.90
25214;DHT22;13160;51.834;4.706;2024-02-16T11:04:13;12.80;99.90
25214;DHT22;13160;51.834;4.706;2024-02-16T11:06:47;12.90;99.90
25214;DHT22;13160;51.834;4.706;2024-02-16T11:09:28;12.80;99.90
25214;DHT22;13160;51.834;4.706;2024-02-16T11:11:59;12.90;99.90
25214;DHT22;13160;51.834;4.706;2024-02-16T11:14:35;12.90;99.90
25214;DHT22;13160;51.834;4.706;2024-02-16T11:17:08;12.90;99.90
25214;DHT22;13160;51.834;4.706;2024-02-16T11:19:37;12.90;99.90
25214;DHT22;13160;51.834;4.706;2024-02-16T11:22:08;12.80;99.90
25214;DHT22;13160;51.834;4.706;2024-02-16T11:24:44;12.90;99.90
25214;DHT22;13160;51.834;4.706;2024-02-16T11:27:14;12.80;99.90
25214;DHT22;13160;51.834;4.706;2024-02-16T11:29:47;12.80;99.90
25214;DHT22;13160;51.834;4.706;2024-02-16T11:32:18;12.80;99.90
25214;DHT22;13160;51.834;4.706;2024-02-16T11:34:47;12.70;99.90
25214;DHT22;13160;51.834;4.706;2024-02-16T11:37:16;12.70;99.90
25214;DHT22;13160;51.834;4.706;2024-02-16T11:39:55;12.70;99.90
25214;DHT22;13160;51.834;4.706;2024-02-16T11:42:23;12.70;99.90
25214;DHT22;13160;51.834;4.706;2024-02-16T11:44:53;12.70;99.90
25214;DHT22;13160;51.834;4.706;2024-02-16T11:47:24;12.60;99.90
25214;DHT22;13160;51.834;4.706;2024-02-16T11:50:03;12.60;99.90
25214;DHT22;13160;51.834;4.706;2024-02-16T11:52:33;12.60;99.90
25214;DHT22;13160;51.834;4.706;2024-02-16T11:55:04;12.60;99.90
25214;DHT22;13160;51.834;4.706;2024-02-16T11:57:36;12.60;99.90
25214;DHT22;13160;51.834;4.706;2024-02-16T12:00:06;12.60;99.90
25214;DHT22;13160;51.834;4.706;2024-02-16T12:02:38;12.60;99.90
25214;DHT22;13160;51.834;4.706;2024-02-16T12:05:07;12.60;99.90
25214;DHT22;13160;51.834;4.706;2024-02-16T12:07:37;12.70;99.90
25214;DHT22;13160;51.834;4.706;2024-02-16T12:10:09;12.70;99.90
25214;DHT22;13160;51.834;4.706;2024-02-16T12:12:39;12.70;99.90
25214;DHT22;13160;51.834;4.706;2024-02-16T12:15:10;12.70;99.90
25214;DHT22;13160;51.834;4.706;2024-02-16T12:17:40;12.70;99.90
25214;DHT22;13160;51.834;4.706;2024-02-16T12:20:12;12.70;99.90
25214;DHT22;13160;51.834;4.706;2024-02-16T12:22:42;12.80;99.90
25214;DHT22;13160;51.834;4.706;2024-02-16T12:25:12;12.80;99.90
25214;DHT22;13160;51.834;4.706;2024-02-16T12:27:40;12.80;99.90
25214;DHT22;13160;51.834;4.706;2024-02-16T12:30:10;12.90;99.90
25214;DHT22;13160;51.834;4.706;2024-02-16T12:32:39;13.00;99.90
25214;DHT22;13160;51.834;4.706;2024-02-16T12:35:08;13.00;99.90
25214;DHT22;13160;51.834;4.706;2024-02-16T12:37:37;13.00;99.90
25214;DHT22;13160;51.834;4.706;2024-02-16T12:40:07;13.10;99.90
25214;DHT22;13160;51.834;4.706;2024-02-16T12:42:38;13.20;99.90
25214;DHT22;13160;51.834;4.706;2024-02-16T12:45:07;13.20;99.90
25214;DHT22;13160;51.834;4.706;2024-02-16T12:47:37;13.20;99.90
25214;DHT22;13160;51.834;4.706;2024-02-16T12:50:07;13.30;99.90
25214;DHT22;13160;51.834;4.706;2024-02-16T12:52:36;13.30;99.90
25214;DHT22;13160;51.834;4.706;2024-02-16T12:55:17;13.30;99.90
25214;DHT22;13160;51.834;4.706;2024-02-16T12:57:47;13.40;99.90
25214;DHT22;13160;51.834;4.706;2024-02-16T13:00:18;13.40;99.90
25214;DHT22;13160;51.834;4.706;2024-02-16T13:02:47;13.40;99.90
25214;DHT22;13160;51.834;4.706;2024-02-16T13:05:16;13.30;99.90
25214;DHT22;13160;51.834;4.706;2024-02-16T13:07:45;13.40;99.90
25214;DHT22;13160;51.834;4.706;2024-02-16T13:10:14;13.40;99.90
25214;DHT22;13160;51.834;4.706;2024-02-16T13:12:44;13.40;99.90
25214;DHT22;13160;51.834;4.706;2024-02-16T13:15:15;13.50;99.90
25214;DHT22;13160;51.834;4.706;2024-02-16T13:17:54;13.50;99.90
25214;DHT22;13160;51.834;4.706;2024-02-16T13:20:24;13.40;99.90
25214;DHT22;13160;51.834;4.706;2024-02-16T13:22:53;13.40;99.90
25214;DHT22;13160;51.834;4.706;2024-02-16T13:25:22;13.40;99.90
25214;DHT22;13160;51.834;4.706;2024-02-16T13:27:51;13.40;99.90
25214;DHT22;13160;51.834;4.706;2024-02-16T13:30:21;13.40;99.90
25214;DHT22;13160;51.834;4.706;2024-02-16T13:32:50;13.30;99.90
25214;DHT22;13160;51.834;4.706;2024-02-16T13:35:20;13.30;99.90
25214;DHT22;13160;51.834;4.706;2024-02-16T13:37:50;13.40;99.90
25214;DHT22;13160;51.834;4.706;2024-02-16T13:40:19;13.40;99.90
25214;DHT22;13160;51.834;4.706;2024-02-16T13:42:48;13.40;99.90
25214;DHT22;13160;51.834;4.706;2024-02-16T13:45:17;13.50;99.90
25214;DHT22;13160;51.834;4.706;2024-02-16T13:47:48;13.50;99.90
25214;DHT22;13160;51.834;4.706;2024-02-16T13:50:22;13.50;99.90
25214;DHT22;13160;51.834;4.706;2024-02-16T13:52:52;13.50;99.90
25214;DHT22;13160;51.834;4.706;2024-02-16T13:55:22;13.60;99.90
25214;DHT22;13160;51.834;4.706;2024-02-16T13:57:53;13.60;99.90
25214;DHT22;13160;51.834;4.706;2024-02-16T14:00:24;13.60;99.90
25214;DHT22;13160;51.834;4.706;2024-02-16T14:02:54;13.70;99.90
25214;DHT22;13160;51.834;4.706;2024-02-16T14:05:26;13.70;99.90
25214;DHT22;13160;51.834;4.706;2024-02-16T14:07:58;13.70;99.90
25214;DHT22;13160;51.834;4.706;2024-02-16T14:10:33;13.70;99.90
25214;DHT22;13160;51.834;4.706;2024-02-16T14:13:07;13.80;99.90
25214;DHT22;13160;51.834;4.706;2024-02-16T14:15:37;13.80;99.90
25214;DHT22;13160;51.834;4.706;2024-02-16T14:18:08;13.80;99.90
25214;DHT22;13160;51.834;4.706;2024-02-16T14:21:02;13.80;99.90
25214;DHT22;13160;51.834;4.706;2024-02-16T14:23:42;13.80;99.90
25214;DHT22;13160;51.834;4.706;2024-02-16T14:26:17;13.80;99.90
25214;DHT22;13160;51.834;4.706;2024-02-16T14:28:51;13.80;99.90
25214;DHT22;13160;51.834;4.706;2024-02-16T14:31:21;13.80;99.90
25214;DHT22;13160;51.834;4.706;2024-02-16T14:33:56;13.80;99.90
25214;DHT22;13160;51.834;4.706;2024-02-16T14:36:27;13.80;99.90
25214;DHT22;13160;51.834;4.706;2024-02-16T14:38:57;13.80;99.90
25214;DHT22;13160;51.834;4.706;2024-02-16T14:41:36;13.80;99.90
25214;DHT22;13160;51.834;4.706;2024-02-16T14:44:07;13.70;99.90
25214;DHT22;13160;51.834;4.706;2024-02-16T14:46:41;13.70;99.90
25214;DHT22;13160;51.834;4.706;2024-02-16T14:49:12;13.80;99.90
25214;DHT22;13160;51.834;4.706;2024-02-16T14:51:55;13.70;99.90
25214;DHT22;13160;51.834;4.706;2024-02-16T14:54:32;13.80;99.90
25214;DHT22;13160;51.834;4.706;2024-02-16T14:57:06;13.70;99.90
25214;DHT22;13160;51.834;4.706;2024-02-16T14:59:39;13.80;99.90
25214;DHT22;13160;51.834;4.706;2024-02-16T15:02:08;13.80;99.90
25214;DHT22;13160;51.834;4.706;2024-02-16T15:04:42;13.80;99.90
25214;DHT22;13160;51.834;4.706;2024-02-16T15:07:15;13.80;99.90
25214;DHT22;13160;51.834;4.706;2024-02-16T15:09:45;13.80;99.90
25214;DHT22;13160;51.834;4.706;2024-02-16T15:12:18;13.80;99.90
25214;DHT22;13160;51.834;4.706;2024-02-16T15:14:49;13.80;99.90
25214;DHT22;13160;51.834;4.706;2024-02-16T15:17:23;13.70;99.90
25214;DHT22;13160;51.834;4.706;2024-02-16T15:20:05;13.70;99.90
25214;DHT22;13160;51.834;4.706;2024-02-16T15:22:59;13.70;99.90
25214;DHT22;13160;51.834;4.706;2024-02-16T15:25:35;13.70;99.90
25214;DHT22;13160;51.834;4.706;2024-02-16T15:28:09;13.70;99.90
25214;DHT22;13160;51.834;4.706;2024-02-16T15:30:47;13.70;99.90
25214;DHT22;13160;51.834;4.706;2024-02-16T15:33:35;13.60;99.90
25214;DHT22;13160;51.834;4.706;2024-02-16T15:36:21;13.60;99.90
25214;DHT22;13160;51.834;4.706;2024-02-16T15:38:54;13.60;99.90
25214;DHT22;13160;51.834;4.706;2024-02-16T15:41:23;13.50;99.90
25214;DHT22;13160;51.834;4.706;2024-02-16T15:43:53;13.50;99.90
25214;DHT22;13160;51.834;4.706;2024-02-16T15:46:22;13.50;99.90
25214;DHT22;13160;51.834;4.706;2024-02-16T15:49:00;13.50;99.90
25214;DHT22;13160;51.834;4.706;2024-02-16T15:51:35;13.50;99.90
25214;DHT22;13160;51.834;4.706;2024-02-16T15:54:05;13.50;99.90
25214;DHT22;13160;51.834;4.706;2024-02-16T15:56:36;13.50;99.90
25214;DHT22;13160;51.834;4.706;2024-02-16T15:59:11;13.40;99.90
25214;DHT22;13160;51.834;4.706;2024-02-16T16:01:42;13.40;99.90
25214;DHT22;13160;51.834;4.706;2024-02-16T16:04:17;13.40;99.90
25214;DHT22;13160;51.834;4.706;2024-02-16T16:06:51;13.40;99.90
25214;DHT22;13160;51.834;4.706;2024-02-16T16:09:35;13.40;99.90
25214;DHT22;13160;51.834;4.706;2024-02-16T16:12:06;13.40;99.90
25214;DHT22;13160;51.834;4.706;2024-02-16T16:14:37;13.30;99.90